createdAt,value
2022-08-27T00:02:02.428Z,100792.13
2022-08-27T00:04:30.367Z,100783.75
2022-08-27T00:06:58.459Z,100792.56
2022-08-27T00:09:27.329Z,100796.91
2022-08-27T00:11:57.694Z,100791.53
2022-08-27T00:14:27.131Z,100799.56
2022-08-27T00:16:55.442Z,100787.75
2022-08-27T00:19:23.727Z,100796.66
2022-08-27T00:21:51.722Z,100787.69
2022-08-27T00:24:19.903Z,100788.28
2022-08-27T00:26:47.873Z,100795.78
2022-08-27T00:29:17.399Z,100788.50
2022-08-27T00:31:45.532Z,100792.28
2022-08-27T00:34:19.915Z,100789.03
2022-08-27T00:36:48.135Z,100796.22
2022-08-27T00:39:16.186Z,100793.50
2022-08-27T00:41:44.246Z,100778.47
2022-08-27T00:44:12.945Z,100785.97
2022-08-27T00:46:45.396Z,100794.88
2022-08-27T00:49:20.284Z,100781.97
2022-08-27T00:51:54.749Z,100797.28
2022-08-27T00:54:23.420Z,100791.91
2022-08-27T00:56:52.021Z,100784.38
2022-08-27T00:59:24.494Z,100787.31
2022-08-27T01:02:11.417Z,100797.28
2022-08-27T01:04:41.927Z,100772.19
2022-08-27T01:07:11.521Z,100790.78
2022-08-27T01:09:40.789Z,100778.69
2022-08-27T01:12:09.075Z,100779.50
2022-08-27T01:14:37.685Z,100784.84
2022-08-27T01:17:10.619Z,100774.09
2022-08-27T01:19:44.019Z,100776.50
2022-08-27T01:22:23.356Z,100765.78
2022-08-27T01:24:56.172Z,100782.16
2022-08-27T01:27:29.258Z,100773.25
2022-08-27T01:29:57.618Z,100773.19
2022-08-27T01:32:30.235Z,100776.22
2022-08-27T01:34:59.756Z,100776.94
2022-08-27T01:37:28.793Z,100781.22
2022-08-27T01:39:59.512Z,100779.34
2022-08-27T01:42:30.996Z,100780.16
2022-08-27T01:45:01.765Z,100776.66
2022-08-27T01:47:34.443Z,100777.72
2022-08-27T01:50:03.782Z,100769.63
2022-08-27T01:52:32.407Z,100776.91
2022-08-27T01:55:02.001Z,100768.59
2022-08-27T01:57:30.171Z,100765.66
2022-08-27T01:59:58.187Z,100762.72
2022-08-27T02:02:26.949Z,100775.06
2022-08-27T02:04:54.861Z,100770.78
2022-08-27T02:07:22.751Z,100768.34
2022-08-27T02:09:50.846Z,100761.91
2022-08-27T02:12:20.125Z,100760.56
2022-08-27T02:14:47.935Z,100770.84
2022-08-27T02:17:16.600Z,100765.75
2022-08-27T02:19:44.398Z,100764.16
2022-08-27T02:22:13.088Z,100757.19
2022-08-27T02:24:42.164Z,100754.00
2022-08-27T02:27:10.764Z,100751.31
2022-08-27T02:29:40.325Z,100759.13
2022-08-27T02:32:24.290Z,100757.00
2022-08-27T02:34:56.973Z,100759.16
2022-08-27T02:37:24.777Z,100750.28
2022-08-27T02:39:52.643Z,100752.97
2022-08-27T02:42:20.808Z,100742.22
2022-08-27T02:44:49.953Z,100747.59
2022-08-27T02:47:18.658Z,100739.81
2022-08-27T02:49:46.590Z,100744.38
2022-08-27T02:52:14.423Z,100742.75
2022-08-27T02:54:44.196Z,100751.88
2022-08-27T02:57:12.266Z,100751.06
2022-08-27T02:59:40.124Z,100753.22
2022-08-27T03:02:11.017Z,100758.81
2022-08-27T03:04:38.943Z,100751.03
2022-08-27T03:07:06.752Z,100755.88
2022-08-27T03:09:35.097Z,100756.38
2022-08-27T03:12:03.167Z,100750.72
2022-08-27T03:14:31.359Z,100745.88
2022-08-27T03:17:19.575Z,100752.56
2022-08-27T03:19:47.808Z,100756.31
2022-08-27T03:22:15.745Z,100757.88
2022-08-27T03:24:43.948Z,100747.41
2022-08-27T03:27:11.785Z,100760.28
2022-08-27T03:29:40.047Z,100760.53
2022-08-27T03:32:08.207Z,100755.69
2022-08-27T03:34:36.157Z,100757.81
2022-08-27T03:37:05.788Z,100751.09
2022-08-27T03:39:33.600Z,100758.59
2022-08-27T03:42:01.404Z,100761.53
2022-08-27T03:44:29.679Z,100758.31
2022-08-27T03:46:57.486Z,100761.25
2022-08-27T03:49:25.339Z,100760.69
2022-08-27T03:51:54.840Z,100760.97
2022-08-27T03:54:24.996Z,100754.78
2022-08-27T03:56:52.853Z,100757.72
2022-08-27T03:59:20.928Z,100748.31
2022-08-27T04:01:48.936Z,100748.56
2022-08-27T04:04:16.854Z,100752.31
2022-08-27T04:06:44.971Z,100751.78
2022-08-27T04:09:12.841Z,100752.84
2022-08-27T04:11:42.048Z,100753.88
2022-08-27T04:14:24.940Z,100750.66
2022-08-27T04:16:55.946Z,100743.09
2022-08-27T04:19:27.588Z,100746.63
2022-08-27T04:22:00.782Z,100745.78
2022-08-27T04:24:29.269Z,100751.69
2022-08-27T04:26:58.629Z,100742.84
2022-08-27T04:29:26.867Z,100743.59
2022-08-27T04:31:55.181Z,100740.91
2022-08-27T04:34:23.112Z,100749.47
2022-08-27T04:36:51.286Z,100741.69
2022-08-27T04:39:20.840Z,100747.56
2022-08-27T04:41:50.492Z,100747.81
2022-08-27T04:44:20.182Z,100742.72
2022-08-27T04:46:49.423Z,100746.72
2022-08-27T04:49:18.415Z,100756.91
2022-08-27T04:51:47.732Z,100747.47
2022-08-27T04:54:17.175Z,100748.81
2022-08-27T04:56:45.174Z,100750.91
2022-08-27T04:59:13.415Z,100762.19
2022-08-27T05:01:44.268Z,100762.19
2022-08-27T05:04:15.819Z,100757.31
2022-08-27T05:06:47.093Z,100755.13
2022-08-27T05:09:16.549Z,100759.44
2022-08-27T05:11:47.151Z,100768.53
2022-08-27T05:14:16.862Z,100764.00
2022-08-27T05:16:47.404Z,100770.19
2022-08-27T05:19:15.636Z,100767.97
2022-08-27T05:21:48.984Z,100772.06
2022-08-27T05:24:18.172Z,100770.66
2022-08-27T05:26:48.425Z,100772.28
2022-08-27T05:29:16.613Z,100774.16
2022-08-27T05:31:48.771Z,100784.63
2022-08-27T05:34:22.033Z,100785.47
2022-08-27T05:36:55.041Z,100791.88
2022-08-27T05:39:23.231Z,100791.66
2022-08-27T05:41:52.498Z,100786.28
2022-08-27T05:47:10.063Z,100787.63
2022-08-27T05:49:39.000Z,100784.13
2022-08-27T05:52:10.648Z,100790.06
2022-08-27T05:54:38.923Z,100790.31
2022-08-27T05:57:07.384Z,100775.53
2022-08-27T05:59:52.555Z,100782.84
2022-08-27T06:02:22.039Z,100781.50
2022-08-27T06:04:50.011Z,100781.78
2022-08-27T06:07:19.164Z,100779.91
2022-08-27T06:09:47.294Z,100778.00
2022-08-27T06:12:15.107Z,100785.25
2022-08-27T06:14:42.913Z,100787.94
2022-08-27T06:17:11.023Z,100786.88
2022-08-27T06:19:42.333Z,100787.44
2022-08-27T06:22:11.060Z,100787.44
2022-08-27T06:24:40.797Z,100782.63
2022-08-27T06:27:11.915Z,100774.88
2022-08-27T06:29:40.262Z,100764.38
2022-08-27T06:32:09.456Z,100774.94
2022-08-27T06:34:38.217Z,100763.16
2022-08-27T06:37:08.066Z,100764.00
2022-08-27T06:39:37.502Z,100771.56
2022-08-27T06:42:06.512Z,100770.25
2022-08-27T06:44:35.035Z,100778.09
2022-08-27T06:47:04.649Z,100770.91
2022-08-27T06:49:33.838Z,100773.63
2022-08-27T06:52:01.843Z,100777.16
2022-08-27T06:54:30.988Z,100773.94
2022-08-27T06:57:00.185Z,100779.88
2022-08-27T06:59:28.297Z,100776.13
2022-08-27T07:01:56.472Z,100782.28
2022-08-27T07:04:27.854Z,100782.00
2022-08-27T07:07:01.419Z,100779.50
2022-08-27T07:09:32.051Z,100780.81
2022-08-27T07:12:00.401Z,100786.44
2022-08-27T07:14:28.621Z,100791.00
2022-08-27T07:16:56.447Z,100787.25
2022-08-27T07:19:24.389Z,100784.03
2022-08-27T07:21:52.855Z,100786.44
2022-08-27T07:24:20.669Z,100780.81
2022-08-27T07:26:50.222Z,100785.38
2022-08-27T07:29:18.014Z,100786.22
2022-08-27T07:31:45.964Z,100785.75
2022-08-27T07:34:14.085Z,100791.97
2022-08-27T07:36:41.980Z,100794.44
2022-08-27T07:39:09.934Z,100790.75
2022-08-27T07:41:58.717Z,100791.88
2022-08-27T07:44:28.245Z,100789.28
2022-08-27T07:47:02.711Z,100787.69
2022-08-27T07:49:31.515Z,100788.28
2022-08-27T07:51:59.315Z,100785.25
2022-08-27T07:54:27.932Z,100795.56
2022-08-27T07:56:56.513Z,100802.88
2022-08-27T07:59:26.152Z,100799.13
2022-08-27T08:01:56.806Z,100798.13
2022-08-27T08:04:24.829Z,100795.75
2022-08-27T08:06:53.200Z,100807.34
2022-08-27T08:09:22.468Z,100793.09
2022-08-27T08:11:50.783Z,100801.47
2022-08-27T08:14:18.999Z,100801.97
2022-08-27T08:16:46.936Z,100804.16
2022-08-27T08:19:16.412Z,100808.47
2022-08-27T08:21:44.427Z,100811.97
2022-08-27T08:24:12.300Z,100815.25
2022-08-27T08:26:41.981Z,100813.34
2022-08-27T08:29:18.016Z,100805.78
2022-08-27T08:31:50.262Z,100808.47
2022-08-27T08:34:20.692Z,100819.78
2022-08-27T08:36:54.611Z,100819.78
2022-08-27T08:39:23.249Z,100812.78
2022-08-27T08:41:53.644Z,100811.69
2022-08-27T08:44:31.277Z,100811.72
2022-08-27T08:47:04.589Z,100823.53
2022-08-27T08:49:44.421Z,100822.22
2022-08-27T08:52:30.730Z,100815.22
2022-08-27T08:55:13.108Z,100813.59
2022-08-27T08:57:49.895Z,100815.22
2022-08-27T09:00:17.768Z,100824.38
2022-08-27T09:02:53.279Z,100823.03
2022-08-27T09:05:27.179Z,100824.38
2022-08-27T09:10:57.845Z,100820.84
2022-08-27T09:13:30.817Z,100818.97
2022-08-27T09:16:03.075Z,100809.03
2022-08-27T09:18:31.380Z,100813.56
2022-08-27T09:21:09.854Z,100810.84
2022-08-27T09:23:46.067Z,100810.59
2022-08-27T09:26:27.444Z,100811.13
2022-08-27T09:29:19.861Z,100817.88
2022-08-27T09:31:59.949Z,100817.84
2022-08-27T09:34:34.669Z,100817.84
2022-08-27T09:37:08.775Z,100818.63
2022-08-27T09:39:46.884Z,100820.53
2022-08-27T09:42:27.322Z,100809.75
2022-08-27T09:44:55.738Z,100816.41
2022-08-27T09:47:24.874Z,100817.19
2022-08-27T09:50:06.610Z,100812.06
2022-08-27T09:52:38.997Z,100814.28
2022-08-27T09:55:08.435Z,100816.13
2022-08-27T09:57:41.705Z,100810.44
2022-08-27T10:00:16.536Z,100816.38
2022-08-27T10:02:52.806Z,100818.03
2022-08-27T10:05:29.651Z,100816.38
2022-08-27T10:08:01.923Z,100810.97
2022-08-27T10:10:40.683Z,100808.31
2022-08-27T10:13:13.738Z,100802.09
2022-08-27T10:15:50.880Z,100807.72
2022-08-27T10:18:28.321Z,100801.53
2022-08-27T10:21:08.594Z,100802.78
2022-08-27T10:23:43.285Z,100801.13
2022-08-27T10:26:16.590Z,100804.41
2022-08-27T10:28:59.731Z,100799.72
2022-08-27T10:31:40.306Z,100797.22
2022-08-27T10:34:27.242Z,100790.72
2022-08-27T10:37:07.445Z,100789.56
2022-08-27T10:39:50.784Z,100788.34
2022-08-27T10:42:26.871Z,100778.00
2022-08-27T10:45:04.995Z,100777.47
2022-08-27T10:47:55.548Z,100782.88
2022-08-27T10:50:30.124Z,100764.41
2022-08-27T10:53:02.949Z,100763.97
2022-08-27T10:55:34.989Z,100766.81
2022-08-27T10:58:14.849Z,100770.69
2022-08-27T11:00:50.542Z,100761.97
2022-08-27T11:03:27.461Z,100763.31
2022-08-27T11:06:04.779Z,100762.97
2022-08-27T11:08:42.202Z,100764.44
2022-08-27T11:14:17.561Z,100779.50
2022-08-27T11:16:51.636Z,100770.78
2022-08-27T11:19:24.534Z,100765.63
2022-08-27T11:22:05.137Z,100766.44
2022-08-27T11:24:37.787Z,100762.13
2022-08-27T11:27:08.975Z,100764.03
2022-08-27T11:29:43.915Z,100773.19
2022-08-27T11:32:16.820Z,100761.97
2022-08-27T11:34:51.178Z,100759.34
2022-08-27T11:37:32.043Z,100757.03
2022-08-27T11:40:18.454Z,100764.06
2022-08-27T11:42:51.707Z,100748.28
2022-08-27T11:45:23.724Z,100754.69
2022-08-27T11:47:56.755Z,100764.09
2022-08-27T11:50:26.919Z,100758.59
2022-08-27T11:52:59.275Z,100759.78
2022-08-27T11:55:31.448Z,100755.41
2022-08-27T11:58:24.185Z,100770.09
2022-08-27T12:00:54.254Z,100765.28
2022-08-27T12:03:29.771Z,100769.84
2022-08-27T12:06:22.753Z,100758.81
2022-08-27T12:08:51.807Z,100759.97
2022-08-27T12:11:36.305Z,100755.06
2022-08-27T12:14:16.686Z,100758.34
2022-08-27T12:16:55.335Z,100762.63
2022-08-27T12:19:34.298Z,100767.03
2022-08-27T12:22:19.410Z,100765.41
2022-08-27T12:24:55.820Z,100766.00
2022-08-27T12:27:32.923Z,100769.75
2022-08-27T12:30:06.831Z,100784.75
2022-08-27T12:32:40.554Z,100783.19
2022-08-27T12:35:13.064Z,100778.13
2022-08-27T12:37:46.667Z,100782.41
2022-08-27T12:40:22.898Z,100780.59
2022-08-27T12:42:54.464Z,100782.03
2022-08-27T12:45:26.802Z,100776.53
2022-08-27T12:47:56.513Z,100774.69
2022-08-27T12:50:26.749Z,100783.00
2022-08-27T12:53:30.693Z,100785.38
2022-08-27T12:56:06.680Z,100772.72
2022-08-27T12:58:48.548Z,100773.75
2022-08-27T13:01:37.615Z,100764.03
2022-08-27T13:04:21.897Z,100767.53
2022-08-27T13:06:49.827Z,100772.88
2022-08-27T13:09:17.905Z,100767.66
2022-08-27T13:11:48.461Z,100765.69
2022-08-27T13:14:19.921Z,100763.19
2022-08-27T13:16:53.744Z,100766.88
2022-08-27T13:19:26.207Z,100758.53
2022-08-27T13:21:55.351Z,100762.22
2022-08-27T13:24:31.080Z,100750.47
2022-08-27T13:26:59.770Z,100761.25
2022-08-27T13:29:28.501Z,100749.25
2022-08-27T13:31:58.431Z,100750.25
2022-08-27T13:34:29.093Z,100750.19
2022-08-27T13:36:59.772Z,100755.22
2022-08-27T13:39:28.631Z,100750.88
2022-08-27T13:42:00.379Z,100758.44
2022-08-27T13:44:33.059Z,100747.88
2022-08-27T13:47:05.241Z,100756.53
2022-08-27T13:49:40.032Z,100747.88
2022-08-27T13:52:17.438Z,100750.56
2022-08-27T13:54:45.190Z,100749.31
2022-08-27T13:57:25.809Z,100746.84
2022-08-27T13:59:54.197Z,100755.47
2022-08-27T14:02:28.865Z,100758.13
2022-08-27T14:05:11.296Z,100738.69
2022-08-27T14:07:43.303Z,100744.28
2022-08-27T14:10:32.434Z,100738.09
2022-08-27T14:13:03.025Z,100743.56
2022-08-27T14:15:34.733Z,100733.84
2022-08-27T14:18:07.071Z,100733.03
2022-08-27T14:20:35.025Z,100733.59
2022-08-27T14:23:02.900Z,100724.41
2022-08-27T14:25:31.809Z,100735.50
2022-08-27T14:27:59.546Z,100728.50
2022-08-27T14:30:29.958Z,100737.75
2022-08-27T14:32:59.497Z,100738.94
2022-08-27T14:35:29.298Z,100726.72
2022-08-27T14:37:57.367Z,100732.19
2022-08-27T14:40:25.470Z,100729.66
2022-08-27T14:42:54.260Z,100733.91
2022-08-27T14:45:23.238Z,100740.41
2022-08-27T14:47:51.933Z,100730.06
2022-08-27T14:50:19.936Z,100728.44
2022-08-27T14:52:49.144Z,100729.03
2022-08-27T14:55:17.174Z,100740.28
2022-08-27T14:57:45.336Z,100732.72
2022-08-27T15:00:13.586Z,100736.72
2022-08-27T15:02:48.541Z,100729.47
2022-08-27T15:05:17.370Z,100730.22
2022-08-27T15:07:47.064Z,100725.66
2022-08-27T15:10:17.078Z,100721.38
2022-08-27T15:12:45.049Z,100729.94
2022-08-27T15:15:14.658Z,100731.13
2022-08-27T15:17:43.104Z,100729.66
2022-08-27T15:20:19.989Z,100730.75
2022-08-27T15:22:51.102Z,100729.09
2022-08-27T15:25:21.353Z,100733.03
2022-08-27T15:27:49.919Z,100734.25
2022-08-27T15:30:19.291Z,100736.66
2022-08-27T15:32:48.971Z,100738.50
2022-08-27T15:35:20.600Z,100736.66
2022-08-27T15:37:48.476Z,100737.47
2022-08-27T15:40:18.361Z,100742.00
2022-08-27T15:42:50.585Z,100739.25
2022-08-27T15:45:18.521Z,100741.69
2022-08-27T15:47:46.580Z,100743.53
2022-08-27T15:50:14.481Z,100740.22
2022-08-27T15:52:43.248Z,100747.53
2022-08-27T15:55:22.496Z,100743.00
2022-08-27T15:57:52.093Z,100738.00
2022-08-27T16:00:21.804Z,100741.22
2022-08-27T16:02:51.046Z,100736.03
2022-08-27T16:05:21.868Z,100730.34
2022-08-27T16:07:50.311Z,100735.47
2022-08-27T16:10:18.270Z,100742.19
2022-08-27T16:12:46.213Z,100732.72
2022-08-27T16:15:15.825Z,100735.34
2022-08-27T16:17:43.890Z,100726.66
2022-08-27T16:20:16.110Z,100730.97
2022-08-27T16:22:45.414Z,100725.56
2022-08-27T16:25:17.799Z,100728.78
2022-08-27T16:27:46.582Z,100726.59
2022-08-27T16:30:15.973Z,100723.31
2022-08-27T16:32:46.908Z,100729.81
2022-08-27T16:35:15.422Z,100721.41
2022-08-27T16:37:43.583Z,100731.94
2022-08-27T16:40:11.757Z,100721.13
2022-08-27T16:42:42.966Z,100718.41
2022-08-27T16:45:14.327Z,100722.44
2022-08-27T16:47:57.701Z,100720.56
2022-08-27T16:50:34.983Z,100719.44
2022-08-27T16:53:05.510Z,100705.44
2022-08-27T16:55:33.750Z,100716.44
2022-08-27T16:58:02.889Z,100709.72
2022-08-27T17:00:31.732Z,100708.63
2022-08-27T17:03:02.119Z,100717.25
2022-08-27T17:05:36.979Z,100716.50
2022-08-27T17:08:06.705Z,100710.38
2022-08-27T17:10:44.539Z,100703.47
2022-08-27T17:13:14.473Z,100703.53
2022-08-27T17:15:42.688Z,100709.81
2022-08-27T17:18:12.115Z,100714.88
2022-08-27T17:20:40.393Z,100713.25
2022-08-27T17:23:12.876Z,100714.91
2022-08-27T17:25:41.051Z,100708.16
2022-08-27T17:28:10.466Z,100715.50
2022-08-27T17:30:38.609Z,100715.91
2022-08-27T17:33:07.702Z,100718.72
2022-08-27T17:35:36.879Z,100720.81
2022-08-27T17:38:05.485Z,100723.88
2022-08-27T17:40:33.867Z,100724.50
2022-08-27T17:43:01.719Z,100732.06
2022-08-27T17:45:29.607Z,100726.44
2022-08-27T17:47:57.373Z,100721.66
2022-08-27T17:50:25.587Z,100724.56
2022-08-27T17:52:54.765Z,100736.97
2022-08-27T17:55:23.508Z,100726.16
2022-08-27T17:57:51.547Z,100731.28
2022-08-27T18:00:19.716Z,100730.25
2022-08-27T18:02:49.574Z,100729.94
2022-08-27T18:05:19.575Z,100732.09
2022-08-27T18:07:48.183Z,100728.31
2022-08-27T18:10:20.917Z,100731.25
2022-08-27T18:12:48.769Z,100731.84
2022-08-27T18:15:19.719Z,100737.38
2022-08-27T18:17:48.950Z,100739.56
2022-08-27T18:20:23.153Z,100742.75
2022-08-27T18:22:51.555Z,100742.47
2022-08-27T18:25:24.494Z,100746.56
2022-08-27T18:27:56.145Z,100745.47
2022-08-27T18:30:24.401Z,100747.38
2022-08-27T18:32:52.275Z,100750.34
2022-08-27T18:35:22.470Z,100750.88
2022-08-27T18:37:51.120Z,100748.75
2022-08-27T18:40:23.546Z,100753.59
2022-08-27T18:42:51.633Z,100754.41
2022-08-27T18:45:23.048Z,100761.69
2022-08-27T18:47:51.778Z,100753.59
2022-08-27T18:50:20.355Z,100763.31
2022-08-27T18:52:50.224Z,100764.44
2022-08-27T18:55:22.539Z,100758.50
2022-08-27T18:57:50.552Z,100772.00
2022-08-27T19:00:19.859Z,100774.97
2022-08-27T19:02:52.582Z,100768.50
2022-08-27T19:05:24.995Z,100772.28
2022-08-27T19:07:53.246Z,100767.72
2022-08-27T19:10:23.148Z,100778.00
2022-08-27T19:12:51.152Z,100777.22
2022-08-27T19:15:19.400Z,100778.88
2022-08-27T19:17:51.828Z,100786.13
2022-08-27T19:20:19.897Z,100781.53
2022-08-27T19:22:49.013Z,100794.25
2022-08-27T19:25:18.352Z,100794.28
2022-08-27T19:27:48.867Z,100786.19
2022-08-27T19:30:17.978Z,100792.13
2022-08-27T19:32:46.627Z,100792.44
2022-08-27T19:35:15.258Z,100792.94
2022-08-27T19:37:52.976Z,100787.84
2022-08-27T19:40:22.924Z,100799.72
2022-08-27T19:42:52.753Z,100795.94
2022-08-27T19:45:22.960Z,100803.00
2022-08-27T19:47:51.504Z,100804.38
2022-08-27T19:50:20.220Z,100796.25
2022-08-27T19:52:48.511Z,100806.25
2022-08-27T19:55:16.488Z,100806.78
2022-08-27T19:57:45.013Z,100807.84
2022-08-27T20:00:16.887Z,100811.66
2022-08-27T20:02:45.280Z,100809.22
2022-08-27T20:05:18.260Z,100806.75
2022-08-27T20:07:46.798Z,100803.53
2022-08-27T20:10:16.504Z,100803.25
2022-08-27T20:12:44.540Z,100810.56
2022-08-27T20:15:15.658Z,100805.69
2022-08-27T20:17:44.068Z,100805.97
2022-08-27T20:20:13.972Z,100797.63
2022-08-27T20:22:42.208Z,100806.53
2022-08-27T20:25:10.953Z,100808.97
2022-08-27T20:27:38.935Z,100804.09
2022-08-27T20:30:08.551Z,100804.63
2022-08-27T20:32:37.833Z,100811.09
2022-08-27T20:35:07.247Z,100808.97
2022-08-27T20:37:41.998Z,100795.50
2022-08-27T20:40:13.810Z,100803.31
2022-08-27T20:42:41.920Z,100807.34
2022-08-27T20:45:12.414Z,100812.75
2022-08-27T20:47:43.420Z,100807.94
2022-08-27T20:50:11.828Z,100813.31
2022-08-27T20:52:40.000Z,100816.03
2022-08-27T20:55:09.609Z,100822.50
2022-08-27T20:57:37.471Z,100827.88
2022-08-27T21:00:21.561Z,100820.84
2022-08-27T21:02:50.721Z,100825.44
2022-08-27T21:05:19.841Z,100836.22
2022-08-27T21:07:48.858Z,100830.31
2022-08-27T21:10:16.712Z,100826.25
2022-08-27T21:12:45.297Z,100831.41
2022-08-27T21:15:14.420Z,100834.91
2022-08-27T21:17:42.424Z,100832.19
2022-08-27T21:20:13.727Z,100834.63
2022-08-27T21:22:42.931Z,100833.81
2022-08-27T21:25:13.016Z,100833.81
2022-08-27T21:27:41.425Z,100829.75
2022-08-27T21:30:10.895Z,100825.72
2022-08-27T21:32:38.812Z,100834.91
2022-08-27T21:35:07.067Z,100833.25
2022-08-27T21:37:36.816Z,100841.06
2022-08-27T21:40:07.101Z,100826.78
2022-08-27T21:42:35.293Z,100836.47
2022-08-27T21:45:03.149Z,100831.88
2022-08-27T21:47:31.164Z,100842.38
2022-08-27T21:49:58.970Z,100830.00
2022-08-27T21:52:26.770Z,100836.47
2022-08-27T21:54:56.245Z,100835.38
2022-08-27T21:57:24.042Z,100835.91
2022-08-27T21:59:52.325Z,100835.91
2022-08-27T22:02:39.362Z,100836.47
2022-08-27T22:05:08.565Z,100842.09
2022-08-27T22:07:36.737Z,100841.28
2022-08-27T22:10:07.354Z,100842.66
2022-08-27T22:12:35.381Z,100845.06
2022-08-27T22:15:03.809Z,100846.94
2022-08-27T22:17:31.643Z,100855.81
2022-08-27T22:20:00.746Z,100850.41
2022-08-27T22:22:30.716Z,100846.91
2022-08-27T22:24:58.883Z,100845.59
2022-08-27T22:27:28.192Z,100849.34
2022-08-27T22:29:56.000Z,100851.50
2022-08-27T22:32:24.067Z,100849.34
2022-08-27T22:34:51.882Z,100847.22
2022-08-27T22:37:19.697Z,100851.00
2022-08-27T22:39:47.489Z,100848.28
2022-08-27T22:42:17.772Z,100850.41
2022-08-27T22:44:47.881Z,100852.00
2022-08-27T22:47:16.206Z,100860.63
2022-08-27T22:49:44.697Z,100853.63
2022-08-27T22:52:13.051Z,100857.66
2022-08-27T22:54:40.880Z,100855.22
2022-08-27T22:57:10.481Z,100862.75
2022-08-27T22:59:38.897Z,100857.91
2022-08-27T23:02:09.688Z,100857.31
2022-08-27T23:04:54.063Z,100852.22
2022-08-27T23:07:22.944Z,100860.00
2022-08-27T23:09:50.730Z,100852.47
2022-08-27T23:12:19.767Z,100859.47
2022-08-27T23:14:47.731Z,100856.78
2022-08-27T23:17:17.123Z,100856.47
2022-08-27T23:19:46.113Z,100856.16
2022-08-27T23:22:15.080Z,100861.53
2022-08-27T23:24:56.756Z,100857.81
2022-08-27T23:27:30.573Z,100852.94
2022-08-27T23:30:00.357Z,100855.41
2022-08-27T23:32:30.729Z,100852.19
2022-08-27T23:34:58.523Z,100856.78
2022-08-27T23:37:27.319Z,100853.50
2022-08-27T23:39:55.528Z,100853.44
2022-08-27T23:42:23.457Z,100850.78
2022-08-27T23:44:51.786Z,100853.50
2022-08-27T23:47:19.803Z,100859.97
2022-08-27T23:49:48.989Z,100858.50
2022-08-27T23:52:16.930Z,100856.69
2022-08-27T23:54:44.756Z,100857.75
2022-08-27T23:57:12.688Z,100859.94
2022-08-27T23:59:40.806Z,100855.66
